Berwick-upon-Tweed, United Kingdom
Current Conditions -  °F | °C
As of 9:50 AM on Wednesday 26 Nov 2014 (Local Time) from EGQM Reporting Station
Light Rain Light Rain  
Wind Chill: 42°   Ceiling: Unl
Heat Index: 45°   Visibility: 4mi
Dew Point: 45°   Wind: 5mph
Humidity: 100%   Direction: 320°NW
Pressure: 29.97"   Gusts: NA
Location:  55.78°N, 2°W
Report Text: EGQM 260950Z AUTO 32004KT 7000 -RA SCT011/// SCT017/// 07/07 Q1015
Loading
Personal Weather Stations






























Interactive Weather Map New forecast layout! Learn more

10-Day Weather Forecast

Advertisements
Track Severe Weather on mobile